createdAt,value
2023-05-17T00:04:30.928Z,19.80
2023-05-17T00:09:34.949Z,19.70
2023-05-17T00:14:39.200Z,19.40
2023-05-17T00:19:43.329Z,19.60
2023-05-17T00:24:47.654Z,18.60
2023-05-17T00:29:52.613Z,19.10
2023-05-17T00:34:56.928Z,17.90
2023-05-17T00:40:03.432Z,17.80
2023-05-17T00:45:08.292Z,18.70
2023-05-17T00:50:12.621Z,17.00
2023-05-17T00:55:17.081Z,17.50
2023-05-17T01:00:21.406Z,16.70
2023-05-17T01:05:29.336Z,17.30
2023-05-17T01:11:01.608Z,15.60
2023-05-17T01:16:30.709Z,15.60
2023-05-17T01:21:51.532Z,16.10
2023-05-17T01:26:57.113Z,16.10
2023-05-17T01:32:03.693Z,15.50
2023-05-17T01:37:07.712Z,14.10
2023-05-17T01:42:23.253Z,14.80
2023-05-17T01:48:05.199Z,15.60
2023-05-17T01:53:17.129Z,14.10
2023-05-17T01:58:25.368Z,13.80
2023-05-17T02:03:30.010Z,14.10
2023-05-17T02:08:34.038Z,13.30
2023-05-17T02:13:38.172Z,12.90
2023-05-17T02:18:42.357Z,14.00
2023-05-17T02:23:46.833Z,13.80
2023-05-17T02:28:51.098Z,13.50
2023-05-17T02:33:55.322Z,13.00
2023-05-17T02:39:00.364Z,12.30
2023-05-17T02:44:04.716Z,12.80
2023-05-17T02:49:08.739Z,11.90
2023-05-17T02:54:12.883Z,12.60
2023-05-17T02:59:17.644Z,11.80
2023-05-17T03:04:22.044Z,11.90
2023-05-17T03:09:26.408Z,10.90
2023-05-17T03:14:30.661Z,11.80
2023-05-17T03:19:35.427Z,12.10
2023-05-17T03:24:40.968Z,11.70
2023-05-17T03:29:44.991Z,11.00
2023-05-17T03:34:50.973Z,11.20
2023-05-17T03:39:54.910Z,10.80
2023-05-17T03:44:59.662Z,9.80
2023-05-17T03:50:04.298Z,10.10
2023-05-17T03:55:09.877Z,9.50
2023-05-17T04:00:15.896Z,10.10
2023-05-17T04:05:20.630Z,9.10
2023-05-17T04:10:25.437Z,9.30
2023-05-17T04:15:29.795Z,8.40
2023-05-17T04:20:36.173Z,8.50
2023-05-17T04:25:40.405Z,8.70
2023-05-17T04:30:46.890Z,9.30
2023-05-17T04:35:51.747Z,7.90
2023-05-17T04:41:03.319Z,8.60
2023-05-17T04:46:09.136Z,9.00
2023-05-17T04:51:13.885Z,8.30
2023-05-17T04:56:19.135Z,8.60
2023-05-17T05:01:23.690Z,8.00
2023-05-17T05:06:28.416Z,7.40
2023-05-17T05:11:32.664Z,7.30
2023-05-17T05:16:37.709Z,7.20
2023-05-17T05:21:41.954Z,7.50
2023-05-17T05:26:46.998Z,8.30
2023-05-17T05:31:53.100Z,7.00
2023-05-17T05:36:58.347Z,7.10
2023-05-17T05:42:04.590Z,6.60
2023-05-17T05:47:08.772Z,7.30
2023-05-17T05:52:13.000Z,6.60
2023-05-17T05:57:18.152Z,8.40
2023-05-17T06:02:22.435Z,7.80
2023-05-17T06:07:26.733Z,7.30
2023-05-17T06:12:30.867Z,6.80
2023-05-17T06:17:35.130Z,7.10
2023-05-17T06:22:39.147Z,6.60
2023-05-17T06:27:44.194Z,6.80
2023-05-17T06:32:48.243Z,6.10
2023-05-17T06:37:52.265Z,6.30
2023-05-17T06:42:56.517Z,6.10
2023-05-17T06:48:00.538Z,5.30
2023-05-17T06:53:05.597Z,5.80
2023-05-17T06:58:09.926Z,5.60
2023-05-17T07:03:13.946Z,5.70
2023-05-17T07:08:18.304Z,5.50
2023-05-17T07:13:22.339Z,4.90
2023-05-17T07:18:26.810Z,5.40
2023-05-17T07:23:33.213Z,4.70
2023-05-17T07:28:37.910Z,5.00
2023-05-17T07:33:42.152Z,4.80
2023-05-17T07:38:46.366Z,5.10
2023-05-17T07:43:51.349Z,5.10
2023-05-17T07:48:58.118Z,4.40
2023-05-17T07:54:03.703Z,4.90
2023-05-17T07:59:08.345Z,4.40
2023-05-17T08:04:12.421Z,4.10
2023-05-17T08:09:17.130Z,4.40
2023-05-17T08:14:22.956Z,3.90
2023-05-17T08:19:27.269Z,4.80
2023-05-17T08:24:31.678Z,4.40
2023-05-17T08:29:36.767Z,3.50
2023-05-17T08:34:42.711Z,3.90
2023-05-17T08:39:47.086Z,4.30
2023-05-17T08:44:53.234Z,3.90
2023-05-17T08:50:06.367Z,3.90
2023-05-17T08:55:10.601Z,3.80
2023-05-17T09:00:19.629Z,3.50
2023-05-17T09:05:23.722Z,3.70
2023-05-17T09:10:28.160Z,3.60
2023-05-17T09:15:34.617Z,3.50
2023-05-17T09:20:40.023Z,3.40
2023-05-17T09:25:50.319Z,3.40
2023-05-17T09:30:54.399Z,3.60
2023-05-17T09:35:58.428Z,3.50
2023-05-17T09:41:03.494Z,3.40
2023-05-17T09:46:07.634Z,3.60
2023-05-17T09:51:12.058Z,3.60
2023-05-17T09:56:16.101Z,3.50
2023-05-17T10:01:22.650Z,3.30
2023-05-17T10:11:39.557Z,3.60
2023-05-17T10:16:44.099Z,3.00
2023-05-17T10:21:50.288Z,3.30
2023-05-17T10:26:54.819Z,3.10
2023-05-17T10:31:59.674Z,2.90
2023-05-17T10:37:04.753Z,3.80
2023-05-17T10:47:16.485Z,3.30
2023-05-17T10:52:24.056Z,3.40
2023-05-17T10:57:49.115Z,2.70
2023-05-17T11:03:14.920Z,3.30
2023-05-17T11:08:19.780Z,2.90
2023-05-17T11:13:27.792Z,2.90
2023-05-17T11:18:52.156Z,2.90
2023-05-17T11:24:00.322Z,2.80
2023-05-17T11:29:10.765Z,3.10
2023-05-17T11:34:14.791Z,2.90
2023-05-17T11:39:22.405Z,2.80
2023-05-17T11:44:30.282Z,3.00
2023-05-17T11:49:38.200Z,3.50
2023-05-17T11:54:43.477Z,2.80
2023-05-17T11:59:47.910Z,2.80
2023-05-17T12:04:52.193Z,3.20
2023-05-17T12:09:56.604Z,2.50
2023-05-17T12:15:00.929Z,3.30
2023-05-17T12:20:11.307Z,2.50
2023-05-17T12:25:25.889Z,2.70
2023-05-17T12:30:30.211Z,2.50
2023-05-17T12:35:34.853Z,2.40
2023-05-17T12:40:43.258Z,2.80
2023-05-17T12:45:48.290Z,2.50
2023-05-17T12:50:52.661Z,3.00
2023-05-17T12:55:59.678Z,2.80
2023-05-17T13:01:08.019Z,2.80
2023-05-17T13:06:12.358Z,2.70
2023-05-17T13:11:16.686Z,3.00
2023-05-17T13:16:30.707Z,2.60
2023-05-17T13:21:34.692Z,2.30
2023-05-17T13:26:38.943Z,2.80
2023-05-17T13:31:43.465Z,3.30
2023-05-17T13:36:48.415Z,3.20
2023-05-17T13:41:52.963Z,2.70
2023-05-17T13:46:58.175Z,3.30
2023-05-17T13:52:02.455Z,4.00
2023-05-17T13:57:08.223Z,3.80
2023-05-17T14:02:12.464Z,4.20
2023-05-17T14:07:16.822Z,3.50
2023-05-17T14:12:21.247Z,3.50
2023-05-17T14:17:25.422Z,3.50
2023-05-17T14:22:31.256Z,3.20
2023-05-17T14:27:35.298Z,3.50
2023-05-17T14:32:39.780Z,3.10
2023-05-17T14:37:44.687Z,3.00
2023-05-17T14:42:49.445Z,3.00
2023-05-17T14:47:53.742Z,3.20
2023-05-17T14:52:58.235Z,3.10
2023-05-17T14:58:03.086Z,2.60
2023-05-17T15:03:07.299Z,3.70
2023-05-17T15:08:12.684Z,3.80
2023-05-17T15:13:17.940Z,3.50
2023-05-17T15:18:22.796Z,3.40
2023-05-17T15:23:27.542Z,2.80
2023-05-17T15:28:31.675Z,3.30
2023-05-17T15:33:36.848Z,3.50
2023-05-17T15:38:41.074Z,2.90
2023-05-17T15:43:45.209Z,2.90
2023-05-17T15:48:49.391Z,3.20
2023-05-17T15:53:53.589Z,3.10
2023-05-17T15:58:57.813Z,3.10
2023-05-17T16:04:02.034Z,2.60
2023-05-17T16:09:06.314Z,3.20
2023-05-17T16:14:10.638Z,2.70
2023-05-17T16:19:14.753Z,3.10
2023-05-17T16:24:20.031Z,3.20
2023-05-17T16:29:23.958Z,3.10
2023-05-17T16:34:29.464Z,4.60
2023-05-17T16:39:33.904Z,3.00
2023-05-17T16:44:37.992Z,3.30
2023-05-17T16:49:42.939Z,3.60
2023-05-17T16:54:47.198Z,3.50
2023-05-17T16:59:51.744Z,4.00
2023-05-17T17:04:56.189Z,3.80
2023-05-17T17:10:00.323Z,3.50
2023-05-17T17:15:07.542Z,3.70
2023-05-17T17:20:13.280Z,3.60
2023-05-17T17:25:17.422Z,7.00
2023-05-17T17:30:21.577Z,5.20
2023-05-17T17:35:25.790Z,5.20
2023-05-17T17:40:30.310Z,5.00
2023-05-17T17:45:34.562Z,5.00
2023-05-17T17:50:38.708Z,4.90
2023-05-17T17:55:42.932Z,4.70
2023-05-17T18:00:49.851Z,4.40
2023-05-17T18:05:54.089Z,4.40
2023-05-17T18:10:58.624Z,5.80
2023-05-17T18:16:03.125Z,5.30
2023-05-17T18:21:09.052Z,5.00
2023-05-17T18:26:13.717Z,4.00
2023-05-17T18:31:19.891Z,4.80
2023-05-17T18:36:23.918Z,4.10
2023-05-17T18:41:29.475Z,4.20
2023-05-17T18:46:35.369Z,4.80
2023-05-17T18:51:40.201Z,4.10
2023-05-17T18:56:44.641Z,4.30
2023-05-17T19:01:53.569Z,4.50
2023-05-17T19:06:58.856Z,4.00
2023-05-17T19:12:04.533Z,4.10
2023-05-17T19:17:10.899Z,4.30
2023-05-17T19:22:16.065Z,3.60
2023-05-17T19:27:21.322Z,3.60
2023-05-17T19:32:27.857Z,3.70
2023-05-17T19:37:35.636Z,3.20
2023-05-17T19:42:40.361Z,3.40
2023-05-17T19:47:46.440Z,4.90
2023-05-17T19:52:53.532Z,3.50
2023-05-17T19:57:59.147Z,3.30
2023-05-17T20:03:03.542Z,3.60
2023-05-17T20:08:09.150Z,3.40
2023-05-17T20:13:13.686Z,3.90
2023-05-17T20:18:19.900Z,3.30
2023-05-17T20:23:25.440Z,3.70
2023-05-17T20:28:29.860Z,3.40
2023-05-17T20:33:34.513Z,5.90
2023-05-17T20:38:40.028Z,4.30
2023-05-17T20:43:50.077Z,3.50
2023-05-17T20:48:56.337Z,4.20
2023-05-17T20:54:01.901Z,3.60
2023-05-17T20:59:07.271Z,3.60
2023-05-17T21:04:12.219Z,3.50
2023-05-17T21:09:16.481Z,3.70
2023-05-17T21:14:20.591Z,4.00
2023-05-17T21:19:24.629Z,4.50
2023-05-17T21:24:28.769Z,5.20
2023-05-17T21:29:32.789Z,5.00
2023-05-17T21:34:38.972Z,4.60
2023-05-17T21:39:43.094Z,4.40
2023-05-17T21:44:47.346Z,4.90
2023-05-17T21:49:51.801Z,5.20
2023-05-17T21:55:04.053Z,4.50
2023-05-17T22:00:13.204Z,5.40
2023-05-17T22:05:17.723Z,4.50
2023-05-17T22:10:24.722Z,5.20
2023-05-17T22:15:28.944Z,4.50
2023-05-17T22:20:33.258Z,4.70
2023-05-17T22:25:38.022Z,3.80
2023-05-17T22:30:45.294Z,4.70
2023-05-17T22:35:53.776Z,4.00
2023-05-17T22:40:59.849Z,4.10
2023-05-17T22:46:04.482Z,4.20
2023-05-17T22:51:08.610Z,4.30
2023-05-17T22:56:13.392Z,3.80
2023-05-17T23:01:17.533Z,4.30
2023-05-17T23:06:22.566Z,4.30
2023-05-17T23:11:26.603Z,4.10
2023-05-17T23:16:30.844Z,4.20
2023-05-17T23:21:36.524Z,3.20
2023-05-17T23:26:41.465Z,3.40
2023-05-17T23:31:48.413Z,3.80
2023-05-17T23:36:52.615Z,3.90
2023-05-17T23:41:58.599Z,3.90
2023-05-17T23:47:04.861Z,3.80
2023-05-17T23:52:12.470Z,3.80
2023-05-17T23:57:16.610Z,3.00
